sensor_id;sensor_type;location;lat;lon;timestamp;pressure;altitude;pressure_sealevel;temperature;humidity
44934;BME280;30667;43.614;1.442;2023-07-29T00:00:44;99723.53;;;24.59;100.00
44934;BME280;30667;43.614;1.442;2023-07-29T00:03:10;99725.44;;;24.55;100.00
44934;BME280;30667;43.614;1.442;2023-07-29T00:05:37;99724.91;;;24.42;100.00
44934;BME280;30667;43.614;1.442;2023-07-29T00:08:03;99724.06;;;24.38;100.00
44934;BME280;30667;43.614;1.442;2023-07-29T00:10:30;99716.84;;;24.29;100.00
44934;BME280;30667;43.614;1.442;2023-07-29T00:12:56;99717.25;;;24.28;100.00
44934;BME280;30667;43.614;1.442;2023-07-29T00:15:21;99715.31;;;24.32;100.00
44934;BME280;30667;43.614;1.442;2023-07-29T00:17:47;99713.47;;;24.43;100.00
44934;BME280;30667;43.614;1.442;2023-07-29T00:20:12;99713.47;;;24.43;100.00
44934;BME280;30667;43.614;1.442;2023-07-29T00:22:37;99707.41;;;24.30;100.00
44934;BME280;30667;43.614;1.442;2023-07-29T00:25:03;99706.19;;;24.28;100.00
44934;BME280;30667;43.614;1.442;2023-07-29T00:27:28;99700.25;;;24.26;100.00
44934;BME280;30667;43.614;1.442;2023-07-29T00:29:54;99706.84;;;24.55;100.00
44934;BME280;30667;43.614;1.442;2023-07-29T00:32:19;99699.22;;;24.41;100.00
44934;BME280;30667;43.614;1.442;2023-07-29T00:34:45;99695.94;;;24.66;100.00
44934;BME280;30667;43.614;1.442;2023-07-29T00:37:10;99705.00;;;24.66;100.00
44934;BME280;30667;43.614;1.442;2023-07-29T00:39:36;99703.78;;;24.26;100.00
44934;BME280;30667;43.614;1.442;2023-07-29T00:42:02;99702.38;;;24.06;100.00
44934;BME280;30667;43.614;1.442;2023-07-29T00:44:28;99704.22;;;23.94;100.00
44934;BME280;30667;43.614;1.442;2023-07-29T00:46:54;99698.47;;;23.80;100.00
44934;BME280;30667;43.614;1.442;2023-07-29T00:49:21;99693.78;;;23.81;100.00
44934;BME280;30667;43.614;1.442;2023-07-29T00:51:47;99693.25;;;23.71;100.00
44934;BME280;30667;43.614;1.442;2023-07-29T00:54:13;99695.97;;;23.68;100.00
44934;BME280;30667;43.614;1.442;2023-07-29T00:56:39;99698.59;;;23.57;100.00
44934;BME280;30667;43.614;1.442;2023-07-29T00:59:05;99693.81;;;23.54;100.00
44934;BME280;30667;43.614;1.442;2023-07-29T01:01:31;99697.72;;;23.53;100.00
44934;BME280;30667;43.614;1.442;2023-07-29T01:03:57;99699.28;;;23.50;100.00
44934;BME280;30667;43.614;1.442;2023-07-29T01:09:27;99693.47;;;23.59;100.00
44934;BME280;30667;43.614;1.442;2023-07-29T01:12:23;99688.66;;;23.52;100.00
44934;BME280;30667;43.614;1.442;2023-07-29T01:17:56;99694.44;;;23.74;100.00
44934;BME280;30667;43.614;1.442;2023-07-29T01:20:25;99687.25;;;23.66;100.00
44934;BME280;30667;43.614;1.442;2023-07-29T01:22:51;99687.94;;;23.59;100.00
44934;BME280;30667;43.614;1.442;2023-07-29T01:25:17;99685.19;;;23.59;100.00
44934;BME280;30667;43.614;1.442;2023-07-29T01:27:44;99691.16;;;23.34;100.00
44934;BME280;30667;43.614;1.442;2023-07-29T01:30:10;99691.00;;;23.24;100.00
44934;BME280;30667;43.614;1.442;2023-07-29T01:35:23;99691.44;;;23.02;100.00
44934;BME280;30667;43.614;1.442;2023-07-29T01:37:55;99702.97;;;23.08;100.00
44934;BME280;30667;43.614;1.442;2023-07-29T01:40:27;99702.13;;;23.04;100.00
44934;BME280;30667;43.614;1.442;2023-07-29T01:42:53;99708.06;;;23.06;100.00
44934;BME280;30667;43.614;1.442;2023-07-29T01:45:19;99697.69;;;22.99;100.00
44934;BME280;30667;43.614;1.442;2023-07-29T01:47:47;99702.13;;;23.04;100.00
44934;BME280;30667;43.614;1.442;2023-07-29T01:50:13;99691.75;;;22.97;100.00
44934;BME280;30667;43.614;1.442;2023-07-29T01:52:38;99692.22;;;23.03;100.00
44934;BME280;30667;43.614;1.442;2023-07-29T01:55:04;99682.06;;;23.07;100.00
44934;BME280;30667;43.614;1.442;2023-07-29T01:57:29;99684.00;;;23.07;100.00
44934;BME280;30667;43.614;1.442;2023-07-29T01:59:55;99684.09;;;23.10;100.00
44934;BME280;30667;43.614;1.442;2023-07-29T02:02:20;99675.25;;;23.01;100.00
44934;BME280;30667;43.614;1.442;2023-07-29T02:04:45;99676.41;;;23.00;100.00
44934;BME280;30667;43.614;1.442;2023-07-29T02:07:16;99678.22;;;22.89;100.00
44934;BME280;30667;43.614;1.442;2023-07-29T02:09:41;99680.19;;;22.88;100.00
44934;BME280;30667;43.614;1.442;2023-07-29T02:12:07;99672.28;;;22.87;100.00
44934;BME280;30667;43.614;1.442;2023-07-29T02:14:32;99667.66;;;22.94;100.00
44934;BME280;30667;43.614;1.442;2023-07-29T02:16:58;99671.53;;;22.90;100.00
44934;BME280;30667;43.614;1.442;2023-07-29T02:19:23;99670.63;;;22.82;100.00
44934;BME280;30667;43.614;1.442;2023-07-29T02:21:48;99666.81;;;22.90;100.00
44934;BME280;30667;43.614;1.442;2023-07-29T02:24:14;99663.88;;;22.79;100.00
44934;BME280;30667;43.614;1.442;2023-07-29T02:26:40;99667.38;;;22.76;100.00
44934;BME280;30667;43.614;1.442;2023-07-29T02:29:06;99656.66;;;22.71;100.00
44934;BME280;30667;43.614;1.442;2023-07-29T02:31:31;99662.16;;;22.71;100.00
44934;BME280;30667;43.614;1.442;2023-07-29T02:33:57;99657.06;;;22.73;100.00
44934;BME280;30667;43.614;1.442;2023-07-29T02:36:22;99654.69;;;22.72;100.00
44934;BME280;30667;43.614;1.442;2023-07-29T02:38:48;99650.09;;;22.79;100.00
44934;BME280;30667;43.614;1.442;2023-07-29T02:41:13;99642.97;;;22.78;100.00
44934;BME280;30667;43.614;1.442;2023-07-29T02:43:41;99645.94;;;22.66;100.00
44934;BME280;30667;43.614;1.442;2023-07-29T02:46:06;99639.91;;;22.60;100.00
44934;BME280;30667;43.614;1.442;2023-07-29T02:48:32;99647.13;;;22.68;100.00
44934;BME280;30667;43.614;1.442;2023-07-29T02:50:57;99638.50;;;22.70;100.00
44934;BME280;30667;43.614;1.442;2023-07-29T02:53:23;99638.50;;;22.70;100.00
44934;BME280;30667;43.614;1.442;2023-07-29T02:55:48;99634.44;;;22.64;100.00
44934;BME280;30667;43.614;1.442;2023-07-29T02:58:14;99637.16;;;22.60;100.00
44934;BME280;30667;43.614;1.442;2023-07-29T03:00:39;99643.03;;;22.59;100.00
44934;BME280;30667;43.614;1.442;2023-07-29T03:03:07;99633.69;;;22.40;100.00
44934;BME280;30667;43.614;1.442;2023-07-29T03:05:33;99636.44;;;22.40;100.00
44934;BME280;30667;43.614;1.442;2023-07-29T03:07:59;99643.22;;;22.46;100.00
44934;BME280;30667;43.614;1.442;2023-07-29T03:10:24;99638.56;;;22.51;100.00
44934;BME280;30667;43.614;1.442;2023-07-29T03:12:50;99640.22;;;22.55;100.00
44934;BME280;30667;43.614;1.442;2023-07-29T03:15:16;99637.41;;;22.52;100.00
44934;BME280;30667;43.614;1.442;2023-07-29T03:17:41;99634.94;;;22.46;100.00
44934;BME280;30667;43.614;1.442;2023-07-29T03:20:07;99635.19;;;22.38;100.00
44934;BME280;30667;43.614;1.442;2023-07-29T03:22:33;99633.59;;;22.37;100.00
44934;BME280;30667;43.614;1.442;2023-07-29T03:24:58;99632.31;;;22.30;100.00
44934;BME280;30667;43.614;1.442;2023-07-29T03:27:23;99635.69;;;22.24;100.00
44934;BME280;30667;43.614;1.442;2023-07-29T03:29:49;99635.16;;;22.34;100.00
44934;BME280;30667;43.614;1.442;2023-07-29T03:32:14;99634.13;;;22.23;100.00
44934;BME280;30667;43.614;1.442;2023-07-29T03:34:40;99627.81;;;22.22;100.00
44934;BME280;30667;43.614;1.442;2023-07-29T03:37:05;99628.44;;;22.35;100.00
44934;BME280;30667;43.614;1.442;2023-07-29T03:39:31;99625.88;;;22.23;100.00
44934;BME280;30667;43.614;1.442;2023-07-29T03:41:57;99634.91;;;22.23;100.00
44934;BME280;30667;43.614;1.442;2023-07-29T03:44:22;99631.38;;;22.23;100.00
44934;BME280;30667;43.614;1.442;2023-07-29T03:46:48;99628.63;;;22.23;100.00
44934;BME280;30667;43.614;1.442;2023-07-29T03:49:13;99625.13;;;22.26;100.00
44934;BME280;30667;43.614;1.442;2023-07-29T03:51:38;99622.38;;;22.26;100.00
44934;BME280;30667;43.614;1.442;2023-07-29T03:54:04;99626.34;;;22.28;100.00
44934;BME280;30667;43.614;1.442;2023-07-29T03:56:29;99618.38;;;22.23;100.00
44934;BME280;30667;43.614;1.442;2023-07-29T03:59:02;99618.75;;;22.22;100.00
44934;BME280;30667;43.614;1.442;2023-07-29T04:01:28;99623.03;;;22.19;100.00
44934;BME280;30667;43.614;1.442;2023-07-29T04:03:54;99617.97;;;22.21;100.00
44934;BME280;30667;43.614;1.442;2023-07-29T04:06:20;99623.94;;;22.27;100.00
44934;BME280;30667;43.614;1.442;2023-07-29T04:08:45;99616.59;;;22.31;100.00
44934;BME280;30667;43.614;1.442;2023-07-29T04:11:11;99620.91;;;22.32;100.00
44934;BME280;30667;43.614;1.442;2023-07-29T04:13:36;99630.72;;;22.29;100.00
44934;BME280;30667;43.614;1.442;2023-07-29T04:16:04;99626.34;;;22.28;100.00
44934;BME280;30667;43.614;1.442;2023-07-29T04:18:29;99628.41;;;22.31;100.00
44934;BME280;30667;43.614;1.442;2023-07-29T04:20:54;99624.69;;;22.43;100.00
44934;BME280;30667;43.614;1.442;2023-07-29T04:23:20;99626.19;;;22.41;100.00
44934;BME280;30667;43.614;1.442;2023-07-29T04:25:45;99626.56;;;22.39;100.00
44934;BME280;30667;43.614;1.442;2023-07-29T04:28:11;99636.94;;;22.26;100.00
44934;BME280;30667;43.614;1.442;2023-07-29T04:30:36;99637.84;;;22.11;100.00
44934;BME280;30667;43.614;1.442;2023-07-29T04:33:01;99642.63;;;22.14;100.00
44934;BME280;30667;43.614;1.442;2023-07-29T04:35:27;99637.91;;;22.14;100.00
44934;BME280;30667;43.614;1.442;2023-07-29T04:37:52;99631.91;;;22.09;100.00
44934;BME280;30667;43.614;1.442;2023-07-29T04:40:18;99640.94;;;22.09;100.00
44934;BME280;30667;43.614;1.442;2023-07-29T04:42:43;99644.25;;;21.95;100.00
44934;BME280;30667;43.614;1.442;2023-07-29T04:45:08;99639.16;;;21.98;100.00
44934;BME280;30667;43.614;1.442;2023-07-29T04:47:34;99641.84;;;21.94;100.00
44934;BME280;30667;43.614;1.442;2023-07-29T04:49:59;99639.94;;;21.98;100.00
44934;BME280;30667;43.614;1.442;2023-07-29T04:52:24;99639.16;;;21.98;100.00
44934;BME280;30667;43.614;1.442;2023-07-29T04:54:50;99642.66;;;21.94;100.00
44934;BME280;30667;43.614;1.442;2023-07-29T04:57:16;99640.63;;;21.91;100.00
44934;BME280;30667;43.614;1.442;2023-07-29T04:59:41;99641.41;;;21.92;100.00
44934;BME280;30667;43.614;1.442;2023-07-29T05:02:06;99642.59;;;21.91;100.00
44934;BME280;30667;43.614;1.442;2023-07-29T05:04:32;99642.72;;;21.98;100.00
44934;BME280;30667;43.614;1.442;2023-07-29T05:06:57;99651.50;;;22.04;100.00
44934;BME280;30667;43.614;1.442;2023-07-29T05:09:23;99646.34;;;22.02;100.00
44934;BME280;30667;43.614;1.442;2023-07-29T05:11:48;99641.41;;;21.92;100.00
44934;BME280;30667;43.614;1.442;2023-07-29T05:14:15;99646.91;;;21.92;100.00
44934;BME280;30667;43.614;1.442;2023-07-29T05:16:40;99648.00;;;21.87;100.00
44934;BME280;30667;43.614;1.442;2023-07-29T05:19:06;99643.72;;;21.90;100.00
44934;BME280;30667;43.614;1.442;2023-07-29T05:21:31;99646.06;;;21.88;100.00
44934;BME280;30667;43.614;1.442;2023-07-29T05:23:57;99641.56;;;21.99;100.00
44934;BME280;30667;43.614;1.442;2023-07-29T05:26:23;99647.13;;;22.03;100.00
44934;BME280;30667;43.614;1.442;2023-07-29T05:28:48;99646.69;;;22.01;100.00
44934;BME280;30667;43.614;1.442;2023-07-29T05:31:14;99644.38;;;22.03;100.00
44934;BME280;30667;43.614;1.442;2023-07-29T05:33:39;99648.00;;;22.07;100.00
44934;BME280;30667;43.614;1.442;2023-07-29T05:36:05;99649.66;;;22.31;100.00
44934;BME280;30667;43.614;1.442;2023-07-29T05:38:30;99638.22;;;22.75;100.00
44934;BME280;30667;43.614;1.442;2023-07-29T05:40:56;99637.66;;;22.93;100.00
44934;BME280;30667;43.614;1.442;2023-07-29T05:43:24;99634.91;;;23.16;100.00
44934;BME280;30667;43.614;1.442;2023-07-29T05:45:50;99643.22;;;23.46;100.00
44934;BME280;30667;43.614;1.442;2023-07-29T05:48:16;99638.66;;;23.61;100.00
44934;BME280;30667;43.614;1.442;2023-07-29T05:50:41;99640.03;;;23.74;100.00
44934;BME280;30667;43.614;1.442;2023-07-29T05:53:07;99640.56;;;23.53;100.00
44934;BME280;30667;43.614;1.442;2023-07-29T05:55:32;99644.25;;;23.08;100.00
44934;BME280;30667;43.614;1.442;2023-07-29T05:57:57;99634.13;;;23.15;100.00
44934;BME280;30667;43.614;1.442;2023-07-29T06:00:23;99635.38;;;23.21;100.00
44934;BME280;30667;43.614;1.442;2023-07-29T06:02:48;99633.31;;;23.45;100.00
44934;BME280;30667;43.614;1.442;2023-07-29T06:05:14;99637.91;;;23.64;100.00
44934;BME280;30667;43.614;1.442;2023-07-29T06:07:39;99631.66;;;23.71;100.00
44934;BME280;30667;43.614;1.442;2023-07-29T06:10:09;99635.53;;;23.63;100.00
44934;BME280;30667;43.614;1.442;2023-07-29T06:12:37;99641.84;;;23.63;100.00
44934;BME280;30667;43.614;1.442;2023-07-29T06:15:02;99640.03;;;23.44;100.00
44934;BME280;30667;43.614;1.442;2023-07-29T06:17:28;99642.31;;;23.38;100.00
44934;BME280;30667;43.614;1.442;2023-07-29T06:19:53;99641.53;;;23.38;100.00
44934;BME280;30667;43.614;1.442;2023-07-29T06:22:19;99652.56;;;23.38;100.00
44934;BME280;30667;43.614;1.442;2023-07-29T06:24:44;99648.84;;;23.53;100.00
44934;BME280;30667;43.614;1.442;2023-07-29T06:27:10;99656.31;;;23.26;100.00
44934;BME280;30667;43.614;1.442;2023-07-29T06:29:35;99652.06;;;23.59;100.00
44934;BME280;30667;43.614;1.442;2023-07-29T06:32:00;99657.50;;;23.25;100.00
44934;BME280;30667;43.614;1.442;2023-07-29T06:34:26;99660.00;;;23.34;100.00
44934;BME280;30667;43.614;1.442;2023-07-29T06:36:51;99668.56;;;23.25;100.00
44934;BME280;30667;43.614;1.442;2023-07-29T06:39:17;99662.50;;;23.16;100.00
44934;BME280;30667;43.614;1.442;2023-07-29T06:41:42;99659.16;;;23.30;100.00
44934;BME280;30667;43.614;1.442;2023-07-29T06:44:07;99658.16;;;23.45;100.00
44934;BME280;30667;43.614;1.442;2023-07-29T06:46:33;99664.19;;;23.51;100.00
44934;BME280;30667;43.614;1.442;2023-07-29T06:48:58;99663.22;;;23.39;100.00
44934;BME280;30667;43.614;1.442;2023-07-29T06:51:23;99667.47;;;23.33;100.00
44934;BME280;30667;43.614;1.442;2023-07-29T06:53:49;99674.13;;;23.29;100.00
44934;BME280;30667;43.614;1.442;2023-07-29T06:56:14;99670.50;;;23.25;100.00
44934;BME280;30667;43.614;1.442;2023-07-29T06:58:40;99665.78;;;23.25;100.00
44934;BME280;30667;43.614;1.442;2023-07-29T07:01:05;99662.25;;;23.55;100.00
44934;BME280;30667;43.614;1.442;2023-07-29T07:03:30;99665.06;;;23.58;100.00
44934;BME280;30667;43.614;1.442;2023-07-29T07:05:56;99664.78;;;23.67;100.00
44934;BME280;30667;43.614;1.442;2023-07-29T07:08:21;99666.94;;;23.81;100.00
44934;BME280;30667;43.614;1.442;2023-07-29T07:10:47;99665.16;;;23.96;100.00
44934;BME280;30667;43.614;1.442;2023-07-29T07:13:12;99660.91;;;24.06;100.00
44934;BME280;30667;43.614;1.442;2023-07-29T07:15:38;99672.03;;;24.09;100.00
44934;BME280;30667;43.614;1.442;2023-07-29T07:18:03;99666.03;;;24.04;100.00
44934;BME280;30667;43.614;1.442;2023-07-29T07:20:29;99664.53;;;24.10;100.00
44934;BME280;30667;43.614;1.442;2023-07-29T07:22:54;99663.44;;;24.18;100.00
44934;BME280;30667;43.614;1.442;2023-07-29T07:25:20;99662.25;;;24.19;100.00
44934;BME280;30667;43.614;1.442;2023-07-29T07:27:46;99664.34;;;24.29;100.00
44934;BME280;30667;43.614;1.442;2023-07-29T07:30:11;99662.44;;;24.37;100.00
44934;BME280;30667;43.614;1.442;2023-07-29T07:32:37;99670.34;;;24.39;100.00
44934;BME280;30667;43.614;1.442;2023-07-29T07:35:02;99672.72;;;24.37;100.00
44934;BME280;30667;43.614;1.442;2023-07-29T07:37:27;99669.84;;;24.26;100.00
44934;BME280;30667;43.614;1.442;2023-07-29T07:39:53;99671.38;;;24.23;100.00
44934;BME280;30667;43.614;1.442;2023-07-29T07:42:18;99669.50;;;24.35;100.00
44934;BME280;30667;43.614;1.442;2023-07-29T07:44:43;99675.91;;;24.42;100.00
44934;BME280;30667;43.614;1.442;2023-07-29T07:47:09;99675.13;;;24.42;100.00
44934;BME280;30667;43.614;1.442;2023-07-29T07:49:34;99677.53;;;24.47;100.00
44934;BME280;30667;43.614;1.442;2023-07-29T07:52:00;99681.50;;;24.46;100.00
44934;BME280;30667;43.614;1.442;2023-07-29T07:54:25;99683.09;;;24.51;100.00
44934;BME280;30667;43.614;1.442;2023-07-29T07:56:50;99672.88;;;24.55;100.00
44934;BME280;30667;43.614;1.442;2023-07-29T07:59:16;99682.78;;;24.56;100.00
44934;BME280;30667;43.614;1.442;2023-07-29T08:01:41;99684.72;;;24.55;100.00
44934;BME280;30667;43.614;1.442;2023-07-29T08:04:06;99681.19;;;24.55;100.00
44934;BME280;30667;43.614;1.442;2023-07-29T08:06:32;99685.97;;;24.58;100.00
44934;BME280;30667;43.614;1.442;2023-07-29T08:08:58;99686.38;;;24.60;100.00
44934;BME280;30667;43.614;1.442;2023-07-29T08:11:24;99693.53;;;24.64;100.00
44934;BME280;30667;43.614;1.442;2023-07-29T08:13:50;99688.41;;;24.66;100.00
44934;BME280;30667;43.614;1.442;2023-07-29T08:16:15;99687.25;;;24.68;100.00
44934;BME280;30667;43.614;1.442;2023-07-29T08:18:41;99684.84;;;24.66;100.00
44934;BME280;30667;43.614;1.442;2023-07-29T08:21:06;99690.03;;;24.71;100.00
44934;BME280;30667;43.614;1.442;2023-07-29T08:23:34;99671.88;;;24.70;100.00
44934;BME280;30667;43.614;1.442;2023-07-29T08:26:03;99678.56;;;24.69;100.00
44934;BME280;30667;43.614;1.442;2023-07-29T08:28:37;99674.69;;;24.77;100.00
44934;BME280;30667;43.614;1.442;2023-07-29T08:31:03;99677.81;;;24.72;100.00
44934;BME280;30667;43.614;1.442;2023-07-29T08:33:29;99677.81;;;24.72;100.00
44934;BME280;30667;43.614;1.442;2023-07-29T08:35:54;99678.66;;;24.76;100.00
44934;BME280;30667;43.614;1.442;2023-07-29T08:38:20;99683.75;;;24.74;100.00
44934;BME280;30667;43.614;1.442;2023-07-29T08:40:53;99679.03;;;24.75;100.00
44934;BME280;30667;43.614;1.442;2023-07-29T08:43:28;99682.56;;;24.75;100.00
44934;BME280;30667;43.614;1.442;2023-07-29T08:45:55;99679.44;;;24.80;100.00
44934;BME280;30667;43.614;1.442;2023-07-29T08:50:59;99682.22;;;24.80;100.00
44934;BME280;30667;43.614;1.442;2023-07-29T08:53:25;99680.72;;;24.90;100.00
44934;BME280;30667;43.614;1.442;2023-07-29T08:55:51;99681.84;;;24.86;100.00
44934;BME280;30667;43.614;1.442;2023-07-29T08:58:19;99681.44;;;24.83;100.00
44934;BME280;30667;43.614;1.442;2023-07-29T09:00:45;99679.84;;;24.79;100.00
44934;BME280;30667;43.614;1.442;2023-07-29T09:03:11;99683.38;;;24.79;100.00
44934;BME280;30667;43.614;1.442;2023-07-29T09:05:37;99679.56;;;24.95;100.00
44934;BME280;30667;43.614;1.442;2023-07-29T09:08:02;99678.31;;;24.89;100.00
44934;BME280;30667;43.614;1.442;2023-07-29T09:10:29;99668.47;;;24.88;100.00
44934;BME280;30667;43.614;1.442;2023-07-29T09:12:54;99672.78;;;24.85;100.00
44934;BME280;30667;43.614;1.442;2023-07-29T09:15:30;99671.16;;;24.84;100.00
44934;BME280;30667;43.614;1.442;2023-07-29T09:17:57;99675.19;;;24.90;100.00
44934;BME280;30667;43.614;1.442;2023-07-29T09:20:26;99671.25;;;24.91;100.00
44934;BME280;30667;43.614;1.442;2023-07-29T09:22:54;99671.59;;;24.86;100.00
44934;BME280;30667;43.614;1.442;2023-07-29T09:25:27;99668.13;;;24.96;100.00
44934;BME280;30667;43.614;1.442;2023-07-29T09:27:59;99661.41;;;24.97;100.00
44934;BME280;30667;43.614;1.442;2023-07-29T09:30:25;99669.66;;;24.94;100.00
44934;BME280;30667;43.614;1.442;2023-07-29T09:32:57;99663.31;;;24.90;100.00
44934;BME280;30667;43.614;1.442;2023-07-29T09:35:26;99667.63;;;24.87;100.00
44934;BME280;30667;43.614;1.442;2023-07-29T09:37:51;99666.06;;;24.86;100.00
44934;BME280;30667;43.614;1.442;2023-07-29T09:40:17;99674.75;;;24.84;100.00
44934;BME280;30667;43.614;1.442;2023-07-29T09:42:50;99670.84;;;24.89;100.00
44934;BME280;30667;43.614;1.442;2023-07-29T09:45:24;99670.47;;;24.91;100.00
44934;BME280;30667;43.614;1.442;2023-07-29T09:47:50;99673.56;;;24.86;100.00
44934;BME280;30667;43.614;1.442;2023-07-29T09:50:16;99679.53;;;24.91;100.00
44934;BME280;30667;43.614;1.442;2023-07-29T09:52:42;99679.19;;;24.96;100.00
44934;BME280;30667;43.614;1.442;2023-07-29T09:55:10;99672.94;;;25.07;100.00
44934;BME280;30667;43.614;1.442;2023-07-29T09:57:36;99680.34;;;24.95;100.00
44934;BME280;30667;43.614;1.442;2023-07-29T10:00:04;99676.38;;;24.89;100.00
44934;BME280;30667;43.614;1.442;2023-07-29T10:02:35;99673.59;;;24.89;100.00
44934;BME280;30667;43.614;1.442;2023-07-29T10:05:02;99672.84;;;24.92;100.00
44934;BME280;30667;43.614;1.442;2023-07-29T10:07:29;99670.41;;;24.87;100.00
44934;BME280;30667;43.614;1.442;2023-07-29T10:09:55;99679.25;;;25.04;100.00
44934;BME280;30667;43.614;1.442;2023-07-29T10:12:24;99677.66;;;25.02;100.00
44934;BME280;30667;43.614;1.442;2023-07-29T10:14:50;99679.28;;;25.11;100.00
44934;BME280;30667;43.614;1.442;2023-07-29T10:17:16;99680.91;;;25.15;100.00
44934;BME280;30667;43.614;1.442;2023-07-29T10:19:43;99678.72;;;25.39;100.00
44934;BME280;30667;43.614;1.442;2023-07-29T10:22:10;99680.31;;;25.44;100.00
44934;BME280;30667;43.614;1.442;2023-07-29T10:24:38;99673.94;;;25.32;100.00
44934;BME280;30667;43.614;1.442;2023-07-29T10:27:06;99679.38;;;25.22;100.00
44934;BME280;30667;43.614;1.442;2023-07-29T10:29:38;99673.44;;;25.23;100.00
44934;BME280;30667;43.614;1.442;2023-07-29T10:32:08;99676.97;;;25.20;100.00
44934;BME280;30667;43.614;1.442;2023-07-29T10:34:36;99673.78;;;25.14;100.00
44934;BME280;30667;43.614;1.442;2023-07-29T10:37:02;99671.34;;;25.02;100.00
44934;BME280;30667;43.614;1.442;2023-07-29T10:39:27;99676.81;;;24.98;100.00
44934;BME280;30667;43.614;1.442;2023-07-29T10:42:02;99670.13;;;24.99;100.00
44934;BME280;30667;43.614;1.442;2023-07-29T10:47:12;99674.59;;;25.15;100.00
44934;BME280;30667;43.614;1.442;2023-07-29T10:49:43;99662.63;;;25.66;100.00
44934;BME280;30667;43.614;1.442;2023-07-29T10:52:13;99667.19;;;25.30;100.00
44934;BME280;30667;43.614;1.442;2023-07-29T10:54:47;99672.97;;;25.10;100.00
44934;BME280;30667;43.614;1.442;2023-07-29T10:57:30;99664.97;;;25.01;100.00
44934;BME280;30667;43.614;1.442;2023-07-29T10:59:56;99666.59;;;25.06;100.00
44934;BME280;30667;43.614;1.442;2023-07-29T11:02:35;99671.44;;;25.20;100.00
44934;BME280;30667;43.614;1.442;2023-07-29T11:05:15;99672.97;;;25.10;100.00
44934;BME280;30667;43.614;1.442;2023-07-29T11:07:48;99671.47;;;25.27;100.00
44934;BME280;30667;43.614;1.442;2023-07-29T11:10:14;99667.84;;;25.12;100.00
44934;BME280;30667;43.614;1.442;2023-07-29T11:12:41;99662.03;;;25.32;100.00
44934;BME280;30667;43.614;1.442;2023-07-29T11:15:22;99665.66;;;25.40;100.00
44934;BME280;30667;43.614;1.442;2023-07-29T11:17:59;99661.88;;;25.77;100.00
44934;BME280;30667;43.614;1.442;2023-07-29T11:20:29;99666.56;;;25.62;100.00
44934;BME280;30667;43.614;1.442;2023-07-29T11:22:57;99663.66;;;25.33;100.00
44934;BME280;30667;43.614;1.442;2023-07-29T11:25:23;99654.88;;;25.27;100.00
44934;BME280;30667;43.614;1.442;2023-07-29T11:27:52;99656.56;;;25.35;100.00
44934;BME280;30667;43.614;1.442;2023-07-29T11:30:18;99648.19;;;25.28;100.00
44934;BME280;30667;43.614;1.442;2023-07-29T11:32:44;99646.28;;;25.43;100.00
44934;BME280;30667;43.614;1.442;2023-07-29T11:35:15;99651.03;;;25.39;100.00
44934;BME280;30667;43.614;1.442;2023-07-29T11:37:43;99639.84;;;25.25;100.00
44934;BME280;30667;43.614;1.442;2023-07-29T11:40:08;99628.56;;;25.62;100.00
44934;BME280;30667;43.614;1.442;2023-07-29T11:42:37;99640.47;;;25.73;100.00
44934;BME280;30667;43.614;1.442;2023-07-29T11:45:03;99635.72;;;25.67;100.00
44934;BME280;30667;43.614;1.442;2023-07-29T11:47:32;99642.72;;;25.39;100.00
44934;BME280;30667;43.614;1.442;2023-07-29T11:50:01;99639.16;;;25.38;100.00
44934;BME280;30667;43.614;1.442;2023-07-29T11:52:27;99640.28;;;25.30;100.00
44934;BME280;30667;43.614;1.442;2023-07-29T11:54:53;99640.22;;;25.23;100.00
44934;BME280;30667;43.614;1.442;2023-07-29T11:57:19;99637.41;;;25.16;100.00
44934;BME280;30667;43.614;1.442;2023-07-29T11:59:46;99630.25;;;25.11;100.00
44934;BME280;30667;43.614;1.442;2023-07-29T12:02:16;99633.06;;;25.15;100.00
44934;BME280;30667;43.614;1.442;2023-07-29T12:04:43;99628.28;;;25.12;100.00
44934;BME280;30667;43.614;1.442;2023-07-29T12:07:08;99635.09;;;25.25;100.00
44934;BME280;30667;43.614;1.442;2023-07-29T12:09:35;99628.09;;;25.38;100.00
44934;BME280;30667;43.614;1.442;2023-07-29T12:12:02;99629.94;;;25.27;100.00
44934;BME280;30667;43.614;1.442;2023-07-29T12:14:28;99623.91;;;25.88;100.00
44934;BME280;30667;43.614;1.442;2023-07-29T12:16:54;99626.22;;;25.68;100.00
44934;BME280;30667;43.614;1.442;2023-07-29T12:19:19;99624.94;;;25.44;100.00
44934;BME280;30667;43.614;1.442;2023-07-29T12:21:48;99624.06;;;25.29;100.00
44934;BME280;30667;43.614;1.442;2023-07-29T12:24:14;99624.78;;;25.22;100.00
44934;BME280;30667;43.614;1.442;2023-07-29T12:26:41;99618.94;;;25.34;100.00
44934;BME280;30667;43.614;1.442;2023-07-29T12:29:18;99619.03;;;25.49;100.00
44934;BME280;30667;43.614;1.442;2023-07-29T12:31:46;99614.19;;;25.31;100.00
44934;BME280;30667;43.614;1.442;2023-07-29T12:34:21;99614.97;;;25.32;100.00
44934;BME280;30667;43.614;1.442;2023-07-29T12:36:48;99613.78;;;25.29;100.00
44934;BME280;30667;43.614;1.442;2023-07-29T12:39:18;99616.25;;;25.45;100.00
44934;BME280;30667;43.614;1.442;2023-07-29T12:41:44;99605.56;;;25.51;100.00
44934;BME280;30667;43.614;1.442;2023-07-29T12:44:10;99606.78;;;25.57;100.00
44934;BME280;30667;43.614;1.442;2023-07-29T12:46:35;99608.28;;;25.36;100.00
44934;BME280;30667;43.614;1.442;2023-07-29T12:49:00;99608.38;;;25.58;100.00
44934;BME280;30667;43.614;1.442;2023-07-29T12:51:26;99610.66;;;25.38;100.00
44934;BME280;30667;43.614;1.442;2023-07-29T12:53:53;99601.63;;;25.55;100.00
44934;BME280;30667;43.614;1.442;2023-07-29T12:56:19;99604.34;;;25.37;100.00
44934;BME280;30667;43.614;1.442;2023-07-29T12:58:45;99602.13;;;25.79;100.00
44934;BME280;30667;43.614;1.442;2023-07-29T13:01:10;99602.47;;;25.63;100.00